createdAt,value
2022-09-03T00:01:20.342Z,63.91
2022-09-03T00:03:56.409Z,64.13
2022-09-03T00:06:40.081Z,64.05
2022-09-03T00:09:18.758Z,64.20
2022-09-03T00:11:51.045Z,63.87
2022-09-03T00:14:27.182Z,64.35
2022-09-03T00:17:03.333Z,64.30
2022-09-03T00:19:40.881Z,64.07
2022-09-03T00:22:19.166Z,64.16
2022-09-03T00:24:48.999Z,64.50
2022-09-03T00:27:24.196Z,64.27
2022-09-03T00:29:58.154Z,64.63
2022-09-03T00:32:34.695Z,64.51
2022-09-03T00:35:06.699Z,64.79
2022-09-03T00:37:38.146Z,64.77
2022-09-03T00:40:16.419Z,64.74
2022-09-03T00:43:02.949Z,64.29
2022-09-03T00:45:39.306Z,64.96
2022-09-03T00:48:27.767Z,65.20
2022-09-03T00:51:17.482Z,65.23
2022-09-03T00:54:03.991Z,65.20
2022-09-03T00:56:45.889Z,65.45
2022-09-03T00:59:15.885Z,65.57
2022-09-03T01:02:15.066Z,64.83
2022-09-03T01:04:52.916Z,65.52
2022-09-03T01:07:32.572Z,65.58
2022-09-03T01:10:34.580Z,65.54
2022-09-03T01:13:11.206Z,65.74
2022-09-03T01:15:50.318Z,65.84
2022-09-03T01:18:38.333Z,66.06
2022-09-03T01:21:28.247Z,66.21
2022-09-03T01:24:07.589Z,66.28
2022-09-03T01:27:05.764Z,66.65
2022-09-03T01:29:58.576Z,66.39
2022-09-03T01:32:50.311Z,66.61
2022-09-03T01:35:45.583Z,66.72
2022-09-03T01:38:43.628Z,66.62
2022-09-03T01:41:48.180Z,66.89
2022-09-03T01:44:52.936Z,66.73
2022-09-03T01:47:32.173Z,67.11
2022-09-03T01:50:13.378Z,67.18
2022-09-03T01:52:50.052Z,67.08
2022-09-03T01:55:34.153Z,67.43
2022-09-03T01:58:11.392Z,67.48
2022-09-03T02:00:43.864Z,67.63
2022-09-03T02:03:12.869Z,67.70
2022-09-03T02:05:39.889Z,67.94
2022-09-03T02:08:11.612Z,68.00
2022-09-03T02:10:43.801Z,68.16
2022-09-03T02:13:20.064Z,68.02
2022-09-03T02:15:50.764Z,68.22
2022-09-03T02:18:29.556Z,68.34
2022-09-03T02:20:57.601Z,68.41
2022-09-03T02:23:28.460Z,68.61
2022-09-03T02:26:02.133Z,68.56
2022-09-03T02:28:32.375Z,68.78
2022-09-03T02:30:59.680Z,68.67
2022-09-03T02:33:27.656Z,68.53
2022-09-03T02:35:55.370Z,68.66
2022-09-03T02:38:28.521Z,68.90
2022-09-03T02:40:55.949Z,68.74
2022-09-03T02:43:41.793Z,68.72
2022-09-03T02:46:14.110Z,69.22
2022-09-03T02:48:41.123Z,68.88
2022-09-03T02:51:14.146Z,69.22
2022-09-03T02:53:43.289Z,69.13
2022-09-03T02:56:17.649Z,69.09
2022-09-03T02:58:45.216Z,69.38
2022-09-03T03:01:18.067Z,69.40
2022-09-03T03:03:52.715Z,69.20
2022-09-03T03:06:20.997Z,69.29
2022-09-03T03:08:49.947Z,69.33
2022-09-03T03:11:18.525Z,69.36
2022-09-03T03:13:47.034Z,69.58
2022-09-03T03:16:15.971Z,69.24
2022-09-03T03:18:43.283Z,69.56
2022-09-03T03:21:13.318Z,69.59
2022-09-03T03:23:40.668Z,69.77
2022-09-03T03:26:10.610Z,69.84
2022-09-03T03:28:38.014Z,69.54
2022-09-03T03:31:22.446Z,69.65
2022-09-03T03:33:57.523Z,69.78
2022-09-03T03:36:26.589Z,69.87
2022-09-03T03:38:55.466Z,69.62
2022-09-03T03:41:33.896Z,69.99
2022-09-03T03:44:03.737Z,69.89
2022-09-03T03:46:33.864Z,70.06
2022-09-03T03:49:01.414Z,70.23
2022-09-03T03:51:29.013Z,70.04
2022-09-03T03:54:01.091Z,70.20
2022-09-03T03:56:31.556Z,70.05
2022-09-03T03:58:59.795Z,69.99
2022-09-03T04:01:28.252Z,70.25
2022-09-03T04:03:56.328Z,70.20
2022-09-03T04:06:23.681Z,69.75
2022-09-03T04:08:51.033Z,70.60
2022-09-03T04:11:20.511Z,70.60
2022-09-03T04:13:48.203Z,70.48
2022-09-03T04:16:21.060Z,70.62
2022-09-03T04:18:49.659Z,70.32
2022-09-03T04:21:23.145Z,70.62
2022-09-03T04:23:51.711Z,70.68
2022-09-03T04:26:22.177Z,70.85
2022-09-03T04:28:49.173Z,70.72
2022-09-03T04:31:19.402Z,70.61
2022-09-03T04:33:46.905Z,70.93
2022-09-03T04:36:19.543Z,70.39
2022-09-03T04:38:48.666Z,70.60
2022-09-03T04:41:20.964Z,70.73
2022-09-03T04:43:51.573Z,70.69
2022-09-03T04:46:20.828Z,70.20
2022-09-03T04:48:53.449Z,70.72
2022-09-03T04:51:27.329Z,70.81
2022-09-03T04:53:59.793Z,70.87
2022-09-03T04:56:35.518Z,70.90
2022-09-03T04:59:05.224Z,70.83
2022-09-03T05:01:34.547Z,70.70
2022-09-03T05:04:01.775Z,70.79
2022-09-03T05:06:31.003Z,70.55
2022-09-03T05:08:58.467Z,70.53
2022-09-03T05:11:27.685Z,70.44
2022-09-03T05:13:57.272Z,70.35
2022-09-03T05:16:25.514Z,70.60
2022-09-03T05:18:54.337Z,70.09
2022-09-03T05:21:22.324Z,69.91
2022-09-03T05:23:50.961Z,69.74
2022-09-03T05:26:23.385Z,69.51
2022-09-03T05:28:57.871Z,69.99
2022-09-03T05:31:26.864Z,69.24
2022-09-03T05:33:57.852Z,69.69
2022-09-03T05:36:27.325Z,69.43
2022-09-03T05:38:54.830Z,69.12
2022-09-03T05:41:23.244Z,69.12
2022-09-03T05:43:53.646Z,68.84
2022-09-03T05:46:21.060Z,69.50
2022-09-03T05:48:47.974Z,68.61
2022-09-03T05:51:17.982Z,68.88
2022-09-03T05:53:48.094Z,68.88
2022-09-03T05:56:21.116Z,68.26
2022-09-03T05:59:01.985Z,67.95
2022-09-03T06:01:56.766Z,68.66
2022-09-03T06:04:46.480Z,68.13
2022-09-03T06:07:33.791Z,68.40
2022-09-03T06:10:25.443Z,67.55
2022-09-03T06:12:54.007Z,67.87
2022-09-03T06:15:21.069Z,68.00
2022-09-03T06:17:47.937Z,67.15
2022-09-03T06:20:15.058Z,66.82
2022-09-03T06:22:42.172Z,66.67
2022-09-03T06:25:09.952Z,66.38
2022-09-03T06:27:36.920Z,67.00
2022-09-03T06:30:06.299Z,66.62
2022-09-03T06:32:53.255Z,65.99
2022-09-03T06:35:42.824Z,65.49
2022-09-03T06:38:30.646Z,65.56
2022-09-03T06:41:24.051Z,64.95
2022-09-03T06:44:13.489Z,65.60
2022-09-03T06:47:01.245Z,64.48
2022-09-03T06:49:48.225Z,64.76
2022-09-03T06:52:35.141Z,64.73
2022-09-03T06:55:22.177Z,63.82
2022-09-03T06:58:09.345Z,64.28
2022-09-03T07:00:56.410Z,62.94
2022-09-03T07:03:43.526Z,63.89
2022-09-03T07:06:34.101Z,62.56
2022-09-03T07:09:21.061Z,62.66
2022-09-03T07:12:08.137Z,62.48
2022-09-03T07:14:55.188Z,62.38
2022-09-03T07:17:42.355Z,62.51
2022-09-03T07:20:29.742Z,61.71
2022-09-03T07:23:16.812Z,62.33
2022-09-03T07:26:03.963Z,62.11
2022-09-03T07:28:54.489Z,61.35
2022-09-03T07:31:53.140Z,61.41
2022-09-03T07:34:41.593Z,61.33
2022-09-03T07:37:28.578Z,61.61
2022-09-03T07:40:15.553Z,61.67
2022-09-03T07:43:02.610Z,61.78
2022-09-03T07:45:49.841Z,61.03
2022-09-03T07:48:37.638Z,60.29
2022-09-03T07:51:24.824Z,60.38
2022-09-03T07:54:13.222Z,61.30
2022-09-03T07:57:00.935Z,60.04
2022-09-03T07:59:48.086Z,60.90
2022-09-03T08:02:35.314Z,60.56
2022-09-03T08:05:22.310Z,59.57
2022-09-03T08:08:09.352Z,59.59
2022-09-03T08:10:57.193Z,59.47
2022-09-03T08:13:44.236Z,60.23
2022-09-03T08:16:37.127Z,59.80
2022-09-03T08:19:24.949Z,59.12
2022-09-03T08:22:11.997Z,59.32
2022-09-03T08:24:59.144Z,58.61
2022-09-03T08:27:46.262Z,59.00
2022-09-03T08:30:33.276Z,59.19
2022-09-03T08:33:21.942Z,58.93
2022-09-03T08:36:14.995Z,58.79
2022-09-03T08:39:03.536Z,58.54
2022-09-03T08:41:56.563Z,58.92
2022-09-03T08:44:48.803Z,57.73
2022-09-03T08:48:25.134Z,57.84
2022-09-03T08:51:16.689Z,58.54
2022-09-03T08:54:09.471Z,58.29
2022-09-03T08:56:40.053Z,57.78
2022-09-03T08:59:07.027Z,58.57
2022-09-03T09:01:39.947Z,58.25
2022-09-03T09:04:32.388Z,57.53
2022-09-03T09:07:15.549Z,57.96
2022-09-03T09:09:51.274Z,57.80
2022-09-03T09:12:29.352Z,57.12
2022-09-03T09:15:12.881Z,57.00
2022-09-03T09:17:45.512Z,56.83
2022-09-03T09:20:31.269Z,56.50
2022-09-03T09:23:05.940Z,56.73
2022-09-03T09:25:39.729Z,55.56
2022-09-03T09:28:13.178Z,55.95
2022-09-03T09:30:40.785Z,56.63
2022-09-03T09:33:07.687Z,56.77
2022-09-03T09:35:35.232Z,56.56
2022-09-03T09:38:02.392Z,56.46
2022-09-03T09:40:35.924Z,56.02
2022-09-03T09:43:22.221Z,55.93
2022-09-03T09:45:51.969Z,55.88
2022-09-03T09:48:38.061Z,55.34
2022-09-03T09:51:10.442Z,55.65
2022-09-03T09:53:38.050Z,55.03
2022-09-03T09:56:05.766Z,54.95
2022-09-03T09:58:34.835Z,54.71
2022-09-03T10:01:15.318Z,54.44
2022-09-03T10:03:55.425Z,53.81
2022-09-03T10:06:50.490Z,53.03
2022-09-03T10:09:41.096Z,52.70
2022-09-03T10:12:51.496Z,52.36
2022-09-03T10:16:10.411Z,52.26
2022-09-03T10:19:04.447Z,51.46
2022-09-03T10:21:57.415Z,50.61
2022-09-03T10:24:53.529Z,50.32
2022-09-03T10:27:41.147Z,50.13
2022-09-03T10:30:28.592Z,50.21
2022-09-03T10:33:18.173Z,50.19
2022-09-03T10:36:12.932Z,50.87
2022-09-03T10:39:02.689Z,50.77
2022-09-03T10:42:08.875Z,50.28
2022-09-03T10:45:13.115Z,50.19
2022-09-03T10:48:37.414Z,50.26
2022-09-03T10:51:40.404Z,49.57
2022-09-03T10:55:12.929Z,49.38
2022-09-03T10:58:18.402Z,48.94
2022-09-03T11:01:14.634Z,49.17
2022-09-03T11:04:40.640Z,48.92
2022-09-03T11:07:30.409Z,49.57
2022-09-03T11:10:31.035Z,49.69
2022-09-03T11:13:26.933Z,49.07
2022-09-03T11:16:19.608Z,48.86
2022-09-03T11:19:23.257Z,48.69
2022-09-03T11:22:12.079Z,47.72
2022-09-03T11:25:01.578Z,47.37
2022-09-03T11:28:20.093Z,47.48
2022-09-03T11:31:23.626Z,47.27
2022-09-03T11:34:47.141Z,47.24
2022-09-03T11:37:45.752Z,46.68
2022-09-03T11:40:37.293Z,46.50
2022-09-03T11:43:46.220Z,46.40
2022-09-03T11:46:48.129Z,45.72
2022-09-03T11:49:50.438Z,46.00
2022-09-03T11:52:49.013Z,46.64
2022-09-03T11:55:53.593Z,46.72
2022-09-03T11:58:50.662Z,46.26
2022-09-03T12:01:18.856Z,46.17
2022-09-03T12:03:58.626Z,46.64
2022-09-03T12:06:43.260Z,45.90
2022-09-03T12:09:57.693Z,46.60
2022-09-03T12:12:46.084Z,46.08
2022-09-03T12:15:25.184Z,46.17
2022-09-03T12:18:19.372Z,45.91
2022-09-03T12:20:49.057Z,44.68
2022-09-03T12:23:28.631Z,45.45
2022-09-03T12:25:56.008Z,44.87
2022-09-03T12:28:26.240Z,44.82
2022-09-03T12:30:53.934Z,44.11
2022-09-03T12:33:23.332Z,43.92
2022-09-03T12:36:01.545Z,43.82
2022-09-03T12:38:30.228Z,44.12
2022-09-03T12:43:52.070Z,43.87
2022-09-03T12:46:33.255Z,44.21
2022-09-03T12:52:48.238Z,44.53
2022-09-03T12:55:48.416Z,44.43
2022-09-03T12:58:44.366Z,44.43
2022-09-03T13:01:47.739Z,44.50
2022-09-03T13:04:41.450Z,43.69
2022-09-03T13:07:54.610Z,43.66
2022-09-03T13:10:53.551Z,43.26
2022-09-03T13:13:48.938Z,43.65
2022-09-03T13:16:41.664Z,43.47
2022-09-03T13:20:02.332Z,44.68
2022-09-03T13:22:58.215Z,44.47
2022-09-03T13:26:06.477Z,44.13
2022-09-03T13:29:21.140Z,44.33
2022-09-03T13:32:15.266Z,44.18
2022-09-03T13:35:13.600Z,44.28
2022-09-03T13:38:09.496Z,44.18
2022-09-03T13:41:05.564Z,44.22
2022-09-03T13:44:02.176Z,44.29
2022-09-03T13:46:55.010Z,44.34
2022-09-03T13:49:52.512Z,45.29
2022-09-03T13:52:51.272Z,45.03
2022-09-03T13:55:27.550Z,45.13
2022-09-03T13:58:01.928Z,45.03
2022-09-03T14:00:43.110Z,45.93
2022-09-03T14:03:52.401Z,46.02
2022-09-03T14:07:01.599Z,46.21
2022-09-03T14:10:10.116Z,46.39
2022-09-03T14:13:05.846Z,46.93
2022-09-03T14:16:09.966Z,47.15
2022-09-03T14:19:19.880Z,47.02
2022-09-03T14:22:25.461Z,47.52
2022-09-03T14:25:34.841Z,48.08
2022-09-03T14:28:43.752Z,47.56
2022-09-03T14:31:39.996Z,47.08
2022-09-03T14:34:45.121Z,47.41
2022-09-03T14:38:05.813Z,48.06
2022-09-03T14:41:38.204Z,48.22
2022-09-03T14:44:42.859Z,49.45
2022-09-03T14:48:12.013Z,50.28
2022-09-03T14:51:50.365Z,51.23
2022-09-03T14:54:47.023Z,51.48
2022-09-03T14:57:54.889Z,51.47
2022-09-03T15:00:48.343Z,51.96
2022-09-03T15:03:47.520Z,52.10
2022-09-03T15:06:52.579Z,52.14
2022-09-03T15:10:13.721Z,51.99
2022-09-03T15:13:05.260Z,52.21
2022-09-03T15:16:21.029Z,52.09
2022-09-03T15:19:19.418Z,52.61
2022-09-03T15:22:33.717Z,52.78
2022-09-03T15:25:41.009Z,53.15
2022-09-03T15:28:43.148Z,53.73
2022-09-03T15:31:57.679Z,53.53
2022-09-03T15:35:15.742Z,53.86
2022-09-03T15:38:20.268Z,53.50
2022-09-03T15:41:07.397Z,53.78
2022-09-03T15:43:54.686Z,54.12
2022-09-03T15:47:05.312Z,53.89
2022-09-03T15:50:18.667Z,54.12
2022-09-03T15:53:19.336Z,53.93
2022-09-03T15:55:47.684Z,54.17
2022-09-03T15:58:34.401Z,54.58
2022-09-03T16:01:07.038Z,54.27
2022-09-03T16:03:56.897Z,54.72
2022-09-03T16:07:01.511Z,54.80
2022-09-03T16:10:22.827Z,55.32
2022-09-03T16:12:49.304Z,54.98
2022-09-03T16:15:23.599Z,55.27
2022-09-03T16:18:04.646Z,55.06
2022-09-03T16:20:31.627Z,55.72
2022-09-03T16:23:25.005Z,55.83
2022-09-03T16:26:13.717Z,55.71
2022-09-03T16:29:09.466Z,55.88
2022-09-03T16:31:48.289Z,56.15
2022-09-03T16:34:22.719Z,56.44
2022-09-03T16:37:01.008Z,57.00
2022-09-03T16:39:43.314Z,57.53
2022-09-03T16:42:23.207Z,58.51
2022-09-03T16:45:23.334Z,58.70
2022-09-03T16:48:14.697Z,59.06
2022-09-03T16:51:08.312Z,59.63
2022-09-03T16:54:06.237Z,60.50
2022-09-03T16:56:59.876Z,60.71
2022-09-03T16:59:32.669Z,61.05
2022-09-03T17:02:40.028Z,61.32
2022-09-03T17:05:45.679Z,61.36
2022-09-03T17:08:24.452Z,60.74
2022-09-03T17:11:28.554Z,60.84
2022-09-03T17:14:07.521Z,61.20
2022-09-03T17:16:50.535Z,61.28
2022-09-03T17:19:27.059Z,60.42
2022-09-03T17:22:02.965Z,61.85
2022-09-03T17:24:48.018Z,61.31
2022-09-03T17:27:46.577Z,61.70
2022-09-03T17:30:21.341Z,62.95
2022-09-03T17:33:46.136Z,63.05
2022-09-03T17:36:36.530Z,63.36
2022-09-03T17:39:45.003Z,63.51
2022-09-03T17:42:40.624Z,64.29
2022-09-03T17:45:33.518Z,64.09
2022-09-03T17:48:29.204Z,64.81
2022-09-03T17:51:30.240Z,64.07
2022-09-03T17:54:41.871Z,64.33
2022-09-03T17:57:28.827Z,64.95
2022-09-03T18:00:31.193Z,64.88
2022-09-03T18:03:18.364Z,65.75
2022-09-03T18:06:26.305Z,64.80
2022-09-03T18:09:19.814Z,65.06
2022-09-03T18:12:10.694Z,65.84
2022-09-03T18:15:11.135Z,65.12
2022-09-03T18:18:05.664Z,66.32
2022-09-03T18:21:22.931Z,65.35
2022-09-03T18:24:38.372Z,65.57
2022-09-03T18:27:52.354Z,66.34
2022-09-03T18:30:38.950Z,65.98
2022-09-03T18:33:24.574Z,65.55
2022-09-03T18:36:10.231Z,66.52
2022-09-03T18:38:57.279Z,66.39
2022-09-03T18:41:57.616Z,65.81
2022-09-03T18:45:20.352Z,66.33
2022-09-03T18:48:20.658Z,66.86
2022-09-03T18:51:43.052Z,66.64
2022-09-03T18:55:07.460Z,67.16
2022-09-03T18:58:16.114Z,66.62
2022-09-03T19:01:44.936Z,67.59
2022-09-03T19:05:00.188Z,66.42
2022-09-03T19:07:45.937Z,66.93
2022-09-03T19:10:41.223Z,67.95
2022-09-03T19:13:53.425Z,67.82
2022-09-03T19:17:05.973Z,66.96
2022-09-03T19:19:51.974Z,67.85
2022-09-03T19:22:53.186Z,66.90
2022-09-03T19:25:41.886Z,67.94
2022-09-03T19:28:32.593Z,68.18
2022-09-03T19:31:51.684Z,67.56
2022-09-03T19:34:55.508Z,67.41
2022-09-03T19:37:51.623Z,67.54
2022-09-03T19:40:55.374Z,68.04
2022-09-03T19:44:12.958Z,68.61
2022-09-03T19:47:18.161Z,67.68
2022-09-03T19:50:21.988Z,68.07
2022-09-03T19:53:20.726Z,68.49
2022-09-03T19:56:12.541Z,68.62
2022-09-03T19:59:04.500Z,69.28
2022-09-03T20:01:55.994Z,69.10
2022-09-03T20:04:58.413Z,69.28
2022-09-03T20:07:44.346Z,68.78
2022-09-03T20:10:24.257Z,69.54
2022-09-03T20:13:29.731Z,69.71
2022-09-03T20:16:37.445Z,69.25
2022-09-03T20:19:50.597Z,68.88
2022-09-03T20:22:49.706Z,69.40
2022-09-03T20:25:42.456Z,69.59
2022-09-03T20:28:54.512Z,69.79
2022-09-03T20:31:56.722Z,69.33
2022-09-03T20:34:53.292Z,70.16
2022-09-03T20:38:00.490Z,69.50
2022-09-03T20:41:12.813Z,70.06
2022-09-03T20:44:18.518Z,70.09
2022-09-03T20:47:21.468Z,70.24
2022-09-03T20:50:30.531Z,70.52
2022-09-03T20:53:38.696Z,70.22
2022-09-03T20:56:59.826Z,70.23
2022-09-03T20:59:52.601Z,70.11
2022-09-03T21:03:01.363Z,70.46
2022-09-03T21:05:51.109Z,70.33
2022-09-03T21:09:05.657Z,70.77
2022-09-03T21:12:11.654Z,70.10
2022-09-03T21:15:27.636Z,70.17
2022-09-03T21:18:14.644Z,70.11
2022-09-03T21:21:07.682Z,70.63
2022-09-03T21:24:01.887Z,70.86
2022-09-03T21:26:56.606Z,70.82
2022-09-03T21:29:46.907Z,70.60
2022-09-03T21:32:36.605Z,70.52
2022-09-03T21:35:31.177Z,71.11
2022-09-03T21:38:41.596Z,70.83
2022-09-03T21:41:28.393Z,70.61
2022-09-03T21:44:18.548Z,70.98
2022-09-03T21:47:20.231Z,70.89
2022-09-03T21:50:23.152Z,70.94
2022-09-03T21:53:43.132Z,71.06
2022-09-03T21:57:00.159Z,71.00
2022-09-03T22:00:05.328Z,71.18
2022-09-03T22:03:00.854Z,70.90
2022-09-03T22:06:09.444Z,70.94
2022-09-03T22:09:24.020Z,71.60
2022-09-03T22:12:33.448Z,70.76
2022-09-03T22:15:21.534Z,71.11
2022-09-03T22:18:10.037Z,71.45
2022-09-03T22:20:57.273Z,71.15
2022-09-03T22:23:54.304Z,70.88
2022-09-03T22:27:14.697Z,71.26
2022-09-03T22:30:08.154Z,71.28
2022-09-03T22:33:03.822Z,71.22
2022-09-03T22:36:16.936Z,71.09
2022-09-03T22:39:28.654Z,71.27
2022-09-03T22:42:38.049Z,71.29
2022-09-03T22:45:44.030Z,70.90
2022-09-03T22:48:50.232Z,70.90
2022-09-03T22:51:38.989Z,71.38
2022-09-03T22:54:44.273Z,71.41
2022-09-03T22:57:34.700Z,71.23
2022-09-03T23:00:29.130Z,71.54
2022-09-03T23:03:27.554Z,71.27
2022-09-03T23:06:23.504Z,71.63
2022-09-03T23:09:24.726Z,71.83
2022-09-03T23:12:20.154Z,71.59
2022-09-03T23:15:12.508Z,72.02
2022-09-03T23:18:06.401Z,71.85
2022-09-03T23:20:56.526Z,72.03
2022-09-03T23:23:51.728Z,71.95
2022-09-03T23:26:50.134Z,72.10
2022-09-03T23:30:02.798Z,72.06
2022-09-03T23:32:50.372Z,72.13
2022-09-03T23:35:37.653Z,72.39
2022-09-03T23:38:41.403Z,72.23
2022-09-03T23:41:37.551Z,72.24
2022-09-03T23:44:46.001Z,72.27
2022-09-03T23:47:53.921Z,72.47
2022-09-03T23:51:15.869Z,72.75
2022-09-03T23:54:43.853Z,72.73
2022-09-03T23:57:47.792Z,72.61
